Time;durP1;ratioP1;P1;durP2;ratioP2;P2;SDS_P1;SDS_P2;PMS_P1;PMS_P2;Temp;Humidity;BMP_temperature;BMP_pressure;BME280_temperature;BME280_humidity;BME280_pressure;Samples;Min_cycle;Max_cycle;Signal;HPM_P1;HPM_P2
2023/11/02 00:00:43;;;;;;;;;;;;;;;;;;4996182;28;4957;-65
2023/11/02 00:03:08;;;;;;;;;;;;;;;;;;5001531;28;5170;-65
2023/11/02 00:14:53;;;;;;;;;;;;;;;;;;4979561;28;4740;-65
2023/11/02 00:17:31;;;;;;;;;;;;;;;;;;5003316;28;5169;-65
2023/11/02 00:19:57;;;;;;;;;;;;;;;;;;4973874;28;4595;-65
2023/11/02 00:22:22;;;;;;;;;;;;;;;;;;5009657;28;5102;-66
2023/11/02 00:24:49;;;;;;;;;;;;;;;;;;4993132;28;5090;-65
2023/11/02 00:27:15;;;;;;;;;;;;;;;;;;4980049;28;5083;-64
2023/11/02 00:29:41;;;;;;;;;;;;;;;;;;4973909;28;2877;-65
2023/11/02 00:32:08;;;;;;;;;;;;;;;;;;4975641;28;5095;-64
2023/11/02 00:34:34;;;;;;;;;;;;;;;;;;5004875;28;4541;-65
2023/11/02 00:36:59;;;;;;;;;;;;;;;;;;4988679;28;5589;-65
2023/11/02 00:39:25;;;;;;;;;;;;;;;;;;4982825;28;5109;-65
2023/11/02 00:41:50;;;;;;;;;;;;;;;;;;4995632;28;3138;-64
2023/11/02 00:44:17;;;;;;;;;;;;;;;;;;4992693;28;4944;-64
2023/11/02 00:46:43;;;;;;;;;;;;;;;;;;4995371;28;5040;-65
2023/11/02 00:49:10;;;;;;;;;;;;;;;;;;4988511;28;4545;-65
2023/11/02 00:51:36;;;;;;;;;;;;;;;;;;5003546;28;4530;-65
2023/11/02 00:54:01;;;;;;;;;;;;;;;;;;4992080;28;5116;-64
2023/11/02 00:56:27;;;;;;;;;;;;;;;;;;4992190;28;3443;-65
2023/11/02 00:58:53;;;;;;;;;;;;;;;;;;5018038;28;4997;-64
2023/11/02 01:01:22;;;;;;;;;;;;;;;;;;4998454;28;4660;-65
2023/11/02 01:07:09;;;;;;;;;;;;;;;;;;4993207;28;5128;-65
2023/11/02 01:13:03;;;;;;;;;;;;;;;;;;5000037;28;5088;-65
2023/11/02 01:15:44;;;;;;;;;;;;;;;;;;5015123;28;4437;-65
2023/11/02 01:18:09;;;;;;;;;;;;;;;;;;5015070;28;4997;-65
2023/11/02 01:21:03;;;;;;;;;;;;;;;;;;4998178;28;2951;-65
2023/11/02 01:23:29;;;;;;;;;;;;;;;;;;5012249;28;5568;-66
2023/11/02 01:32:00;;;;;;;;;;;;;;;;;;4990765;28;4483;-65
2023/11/02 01:34:26;;;;;;;;;;;;;;;;;;4995284;28;5129;-66
2023/11/02 01:36:52;;;;;;;;;;;;;;;;;;4999169;28;4601;-66
2023/11/02 01:39:21;;;;;;;;;;;;;;;;;;4995557;28;5191;-66
2023/11/02 01:41:52;;;;;;;;;;;;;;;;;;5001104;28;2828;-65
2023/11/02 01:44:19;;;;;;;;;;;;;;;;;;5007304;28;4428;-65
2023/11/02 01:46:45;;;;;;;;;;;;;;;;;;4992604;28;4548;-65
2023/11/02 01:52:25;;;;;;;;;;;;;;;;;;4993101;28;5211;-61
2023/11/02 01:54:53;;;;;;;;;;;;;;;;;;4992416;28;4674;-66
2023/11/02 01:57:29;;;;;;;;;;;;;;;;;;5016901;28;5796;-65
2023/11/02 02:00:22;;;;;;;;;;;;;;;;;;4999322;28;5154;-64
2023/11/02 02:03:00;;;;;;;;;;;;;;;;;;5012817;28;2674;-66
2023/11/02 02:05:29;;;;;;;;;;;;;;;;;;5012013;28;5082;-66
2023/11/02 02:08:05;;;;;;;;;;;;;;;;;;5002568;28;5443;-61
2023/11/02 02:10:49;;;;;;;;;;;;;;;;;;4995761;28;5062;-66
2023/11/02 02:13:17;;;;;;;;;;;;;;;;;;5007687;28;4505;-61
2023/11/02 02:15:42;;;;;;;;;;;;;;;;;;4992747;28;4800;-66
2023/11/02 02:18:13;;;;;;;;;;;;;;;;;;4989481;28;5054;-66
2023/11/02 02:39:15;;;;;;;;;;;;;;;;;;5003853;28;4553;-66
2023/11/02 02:41:41;;;;;;;;;;;;;;;;;;4986804;28;5393;-65
2023/11/02 02:44:09;;;;;;;;;;;;;;;;;;5013433;28;4958;-65
2023/11/02 02:46:35;;;;;;;;;;;;;;;;;;4994281;28;4486;-65
2023/11/02 02:49:00;;;;;;;;;;;;;;;;;;4994632;28;4661;-66
2023/11/02 02:51:26;;;;;;;;;;;;;;;;;;4992441;28;4578;-65
2023/11/02 02:53:51;;;;;;;;;;;;;;;;;;4999210;28;3047;-66
2023/11/02 02:56:19;;;;;;;;;;;;;;;;;;5008503;28;4890;-65
2023/11/02 02:58:50;;;;;;;;;;;;;;;;;;5008641;28;5041;-65
2023/11/02 03:01:25;;;;;;;;;;;;;;;;;;5006937;28;4464;-66
2023/11/02 03:03:50;;;;;;;;;;;;;;;;;;4989496;28;5004;-65
2023/11/02 03:09:38;;;;;;;;;;;;;;;;;;4990146;28;5050;-65
2023/11/02 03:12:04;;;;;;;;;;;;;;;;;;4990473;28;5404;-65
2023/11/02 03:14:30;;;;;;;;;;;;;;;;;;5000191;28;3296;-65
2023/11/02 03:16:58;;;;;;;;;;;;;;;;;;5033802;28;4502;-65
2023/11/02 03:28:46;;;;;;;;;;;;;;;;;;4999951;28;4633;-65
2023/11/02 03:31:18;;;;;;;;;;;;;;;;;;5002399;28;5078;-66
2023/11/02 03:34:06;;;;;;;;;;;;;;;;;;5009645;28;4999;-65
2023/11/02 03:40:06;;;;;;;;;;;;;;;;;;5017383;28;4569;-65
2023/11/02 03:42:56;;;;;;;;;;;;;;;;;;5014138;28;4927;-67
2023/11/02 03:45:21;;;;;;;;;;;;;;;;;;5001742;28;5012;-66
2023/11/02 03:48:11;;;;;;;;;;;;;;;;;;4996350;28;1182;-66
2023/11/02 03:50:36;;;;;;;;;;;;;;;;;;4979367;28;5075;-66
2023/11/02 03:53:07;;;;;;;;;;;;;;;;;;4998028;28;5804;-67
2023/11/02 03:55:35;;;;;;;;;;;;;;;;;;4987625;28;4479;-67
2023/11/02 04:04:17;;;;;;;;;;;;;;;;;;4975705;28;5094;-67
2023/11/02 04:07:02;;;;;;;;;;;;;;;;;;4999488;28;5190;-66
2023/11/02 04:09:29;;;;;;;;;;;;;;;;;;4999982;28;4481;-66
2023/11/02 04:11:57;;;;;;;;;;;;;;;;;;5013313;28;5194;-66
2023/11/02 04:14:23;;;;;;;;;;;;;;;;;;4999750;28;3056;-66
2023/11/02 04:16:48;;;;;;;;;;;;;;;;;;5016187;28;4637;-67
2023/11/02 04:19:20;;;;;;;;;;;;;;;;;;4997935;28;5263;-67
2023/11/02 04:21:49;;;;;;;;;;;;;;;;;;5003784;28;5217;-67
2023/11/02 04:27:21;;;;;;;;;;;;;;;;;;4992308;28;5076;-66
2023/11/02 04:33:21;;;;;;;;;;;;;;;;;;4992783;28;5064;-65
2023/11/02 04:35:46;;;;;;;;;;;;;;;;;;5002431;28;3264;-66
2023/11/02 04:38:11;;;;;;;;;;;;;;;;;;4986884;28;4841;-67
2023/11/02 04:40:37;;;;;;;;;;;;;;;;;;5018661;28;5164;-67
2023/11/02 04:43:03;;;;;;;;;;;;;;;;;;4989822;28;5057;-66
2023/11/02 04:45:29;;;;;;;;;;;;;;;;;;4994952;28;5090;-66
2023/11/02 04:47:54;;;;;;;;;;;;;;;;;;5002770;28;5107;-66
2023/11/02 04:50:20;;;;;;;;;;;;;;;;;;5006541;28;3045;-68
2023/11/02 04:52:46;;;;;;;;;;;;;;;;;;4995969;28;4948;-66
2023/11/02 04:55:12;;;;;;;;;;;;;;;;;;5004605;28;5258;-67
2023/11/02 04:57:37;;;;;;;;;;;;;;;;;;4994389;28;4973;-67
2023/11/02 05:00:31;;;;;;;;;;;;;;;;;;5011734;28;5060;-66
2023/11/02 05:02:56;;;;;;;;;;;;;;;;;;5015415;28;5173;-66
2023/11/02 05:05:21;;;;;;;;;;;;;;;;;;5004368;28;2666;-66
2023/11/02 05:07:47;;;;;;;;;;;;;;;;;;4999091;28;4451;-66
2023/11/02 05:10:12;;;;;;;;;;;;;;;;;;5007360;28;4576;-65
2023/11/02 05:12:37;;;;;;;;;;;;;;;;;;4990408;28;5094;-67
2023/11/02 05:15:03;;;;;;;;;;;;;;;;;;4997531;28;5069;-67
2023/11/02 05:17:28;;;;;;;;;;;;;;;;;;4996767;28;3031;-67
2023/11/02 05:20:12;;;;;;;;;;;;;;;;;;5008829;28;5038;-67
2023/11/02 05:22:37;;;;;;;;;;;;;;;;;;5001069;28;5159;-67
2023/11/02 05:25:19;;;;;;;;;;;;;;;;;;4996993;28;5004;-68
2023/11/02 05:27:44;;;;;;;;;;;;;;;;;;5013264;28;5173;-67
2023/11/02 05:30:11;;;;;;;;;;;;;;;;;;5013478;28;4775;-66
2023/11/02 05:35:33;;;;;;;;;;;;;;;;;;4991632;28;5877;-66
2023/11/02 05:38:08;;;;;;;;;;;;;;;;;;4977751;28;4512;-66
2023/11/02 05:40:33;;;;;;;;;;;;;;;;;;4986925;28;5032;-66
2023/11/02 05:42:58;;;;;;;;;;;;;;;;;;4991068;28;4563;-66
2023/11/02 05:48:27;;;;;;;;;;;;;;;;;;4990610;28;5150;-66
2023/11/02 05:50:53;;;;;;;;;;;;;;;;;;4993633;28;1511;-66
2023/11/02 05:53:18;;;;;;;;;;;;;;;;;;4995435;28;4795;-66
2023/11/02 05:55:43;;;;;;;;;;;;;;;;;;4999131;28;5035;-66
2023/11/02 06:01:14;;;;;;;;;;;;;;;;;;4995033;28;5129;-65
2023/11/02 06:03:39;;;;;;;;;;;;;;;;;;4993409;28;4500;-65
2023/11/02 06:06:06;;;;;;;;;;;;;;;;;;4993666;28;4528;-66
2023/11/02 06:08:32;;;;;;;;;;;;;;;;;;4990224;28;2570;-66
2023/11/02 06:10:57;;;;;;;;;;;;;;;;;;4993112;28;5058;-66
2023/11/02 06:13:28;;;;;;;;;;;;;;;;;;4993019;28;4941;-66
2023/11/02 06:15:54;;;;;;;;;;;;;;;;;;5000991;28;4631;-66
2023/11/02 06:18:19;;;;;;;;;;;;;;;;;;5007315;28;5046;-66
2023/11/02 06:23:35;;;;;;;;;;;;;;;;;;4999404;28;4552;-66
2023/11/02 06:35:39;;;;;;;;;;;;;;;;;;4998913;28;5114;-67
2023/11/02 06:38:05;;;;;;;;;;;;;;;;;;4992378;28;4590;-65
2023/11/02 06:40:30;;;;;;;;;;;;;;;;;;4999340;28;4949;-66
2023/11/02 06:42:55;;;;;;;;;;;;;;;;;;5018781;28;5128;-66
2023/11/02 06:45:24;;;;;;;;;;;;;;;;;;5012342;28;5081;-65
2023/11/02 06:47:49;;;;;;;;;;;;;;;;;;4997645;28;1093;-62
2023/11/02 06:50:15;;;;;;;;;;;;;;;;;;5011528;28;4985;-62
2023/11/02 06:52:40;;;;;;;;;;;;;;;;;;4989138;28;5399;-62
2023/11/02 06:55:05;;;;;;;;;;;;;;;;;;5000848;28;4770;-62
2023/11/02 06:57:31;;;;;;;;;;;;;;;;;;4994078;28;5070;-62
2023/11/02 06:59:56;;;;;;;;;;;;;;;;;;4989940;28;5270;-62
2023/11/02 07:02:27;;;;;;;;;;;;;;;;;;4992275;28;1250;-62
2023/11/02 07:04:57;;;;;;;;;;;;;;;;;;5001504;28;4521;-62
2023/11/02 07:07:23;;;;;;;;;;;;;;;;;;4999711;28;5449;-63
2023/11/02 07:09:48;;;;;;;;;;;;;;;;;;4994386;28;5042;-62
2023/11/02 07:12:22;;;;;;;;;;;;;;;;;;5002482;28;4776;-62
2023/11/02 07:15:08;;;;;;;;;;;;;;;;;;5014186;28;1327;-63
2023/11/02 07:23:39;;;;;;;;;;;;;;;;;;4978810;28;4747;-63
2023/11/02 07:26:35;;;;;;;;;;;;;;;;;;4996224;28;5064;-63
2023/11/02 07:29:00;;;;;;;;;;;;;;;;;;4982371;28;5106;-63
2023/11/02 07:31:25;;;;;;;;;;;;;;;;;;4978083;28;5504;-63
2023/11/02 07:33:50;;;;;;;;;;;;;;;;;;4976673;28;4682;-63
2023/11/02 07:36:16;;;;;;;;;;;;;;;;;;4983776;28;5856;-62
2023/11/02 07:38:42;;;;;;;;;;;;;;;;;;4994926;28;1222;-62
2023/11/02 07:41:07;;;;;;;;;;;;;;;;;;4988949;28;4620;-62
2023/11/02 07:43:40;;;;;;;;;;;;;;;;;;4992359;28;5065;-63
2023/11/02 07:46:06;;;;;;;;;;;;;;;;;;4984776;28;5086;-63
2023/11/02 07:48:31;;;;;;;;;;;;;;;;;;4988999;28;4716;-63
2023/11/02 07:50:57;;;;;;;;;;;;;;;;;;5002623;28;5272;-63
2023/11/02 07:53:22;;;;;;;;;;;;;;;;;;5002387;28;2713;-63
2023/11/02 07:55:48;;;;;;;;;;;;;;;;;;5006277;28;5142;-62
2023/11/02 07:58:13;;;;;;;;;;;;;;;;;;5009592;28;5020;-62
2023/11/02 08:00:38;;;;;;;;;;;;;;;;;;5002171;28;5107;-63
2023/11/02 08:03:04;;;;;;;;;;;;;;;;;;5010638;28;5078;-63
2023/11/02 08:05:29;;;;;;;;;;;;;;;;;;5008264;28;3376;-63
2023/11/02 08:07:54;;;;;;;;;;;;;;;;;;5028210;28;4470;-63
2023/11/02 08:10:20;;;;;;;;;;;;;;;;;;5019448;28;4621;-63
2023/11/02 08:12:45;;;;;;;;;;;;;;;;;;5013485;28;4998;-60
2023/11/02 08:15:10;;;;;;;;;;;;;;;;;;5002622;28;4458;-64
2023/11/02 08:17:35;;;;;;;;;;;;;;;;;;5005895;28;1259;-63
2023/11/02 08:20:38;;;;;;;;;;;;;;;;;;5014514;28;5039;-64
2023/11/02 08:23:03;;;;;;;;;;;;;;;;;;5014666;28;5670;-64
2023/11/02 08:28:32;;;;;;;;;;;;;;;;;;4997921;28;5197;-63
2023/11/02 08:30:57;;;;;;;;;;;;;;;;;;5004399;28;4594;-62
2023/11/02 08:33:23;;;;;;;;;;;;;;;;;;5004799;28;5110;-62
2023/11/02 08:35:48;;;;;;;;;;;;;;;;;;4998905;28;1351;-64
2023/11/02 08:38:14;;;;;;;;;;;;;;;;;;4975812;28;4562;-63
2023/11/02 08:40:40;;;;;;;;;;;;;;;;;;5003356;28;4516;-66
2023/11/02 08:43:13;;;;;;;;;;;;;;;;;;5006415;28;5172;-62
2023/11/02 08:45:54;;;;;;;;;;;;;;;;;;4981602;28;5001;-63
2023/11/02 08:48:20;;;;;;;;;;;;;;;;;;5008172;28;5063;-63
2023/11/02 08:50:45;;;;;;;;;;;;;;;;;;5005026;28;3254;-64
2023/11/02 08:53:10;;;;;;;;;;;;;;;;;;5005353;28;4746;-64
2023/11/02 08:55:36;;;;;;;;;;;;;;;;;;5006015;28;5051;-63
2023/11/02 08:58:02;;;;;;;;;;;;;;;;;;5005440;28;4633;-64
2023/11/02 09:00:28;;;;;;;;;;;;;;;;;;5009669;28;5134;-59
2023/11/02 09:02:54;;;;;;;;;;;;;;;;;;5004330;28;1087;-62
2023/11/02 09:05:19;;;;;;;;;;;;;;;;;;4985271;28;5117;-62
2023/11/02 09:07:44;;;;;;;;;;;;;;;;;;4999076;28;5110;-62
2023/11/02 09:10:10;;;;;;;;;;;;;;;;;;4993141;28;5094;-62
2023/11/02 09:12:35;;;;;;;;;;;;;;;;;;4983163;28;5083;-63
2023/11/02 09:15:06;;;;;;;;;;;;;;;;;;4990540;28;5048;-63
2023/11/02 09:17:32;;;;;;;;;;;;;;;;;;4982408;28;1057;-63
2023/11/02 09:19:57;;;;;;;;;;;;;;;;;;4980491;28;4887;-63
2023/11/02 09:22:24;;;;;;;;;;;;;;;;;;4970284;28;5085;-62
2023/11/02 09:24:49;;;;;;;;;;;;;;;;;;4960287;28;5098;-63
2023/11/02 09:27:14;;;;;;;;;;;;;;;;;;4988144;28;5065;-62
2023/11/02 09:29:40;;;;;;;;;;;;;;;;;;4976855;28;4841;-63
2023/11/02 09:32:05;;;;;;;;;;;;;;;;;;4978256;28;5062;-63
2023/11/02 09:34:30;;;;;;;;;;;;;;;;;;4990409;28;4446;-63
2023/11/02 09:37:09;;;;;;;;;;;;;;;;;;4999280;28;5349;-63
2023/11/02 09:39:36;;;;;;;;;;;;;;;;;;4990294;28;4788;-62
2023/11/02 09:42:02;;;;;;;;;;;;;;;;;;5006028;28;5006;-61
2023/11/02 09:44:41;;;;;;;;;;;;;;;;;;4980369;28;1731;-62
2023/11/02 09:47:07;;;;;;;;;;;;;;;;;;5001741;28;4893;-62
2023/11/02 09:49:40;;;;;;;;;;;;;;;;;;5003389;28;5059;-64
2023/11/02 09:52:05;;;;;;;;;;;;;;;;;;4985275;28;4933;-63
2023/11/02 09:54:32;;;;;;;;;;;;;;;;;;5003426;28;4668;-63
2023/11/02 09:56:57;;;;;;;;;;;;;;;;;;5013435;28;5036;-63
2023/11/02 09:59:56;;;;;;;;;;;;;;;;;;5001481;28;1145;-63
2023/11/02 10:02:22;;;;;;;;;;;;;;;;;;4971943;28;5421;-62
2023/11/02 10:05:14;;;;;;;;;;;;;;;;;;4989775;28;5122;-63
2023/11/02 10:07:39;;;;;;;;;;;;;;;;;;5011898;28;5272;-63
2023/11/02 10:10:05;;;;;;;;;;;;;;;;;;4987412;28;4714;-64
2023/11/02 10:12:36;;;;;;;;;;;;;;;;;;4996303;28;5207;-63
2023/11/02 10:15:05;;;;;;;;;;;;;;;;;;5002082;28;5106;-62
2023/11/02 10:17:41;;;;;;;;;;;;;;;;;;4995770;28;3475;-67
2023/11/02 10:20:19;;;;;;;;;;;;;;;;;;4993704;28;4967;-66
2023/11/02 10:22:45;;;;;;;;;;;;;;;;;;4984533;28;5066;-61
2023/11/02 10:25:13;;;;;;;;;;;;;;;;;;4986809;28;5029;-62
2023/11/02 10:27:41;;;;;;;;;;;;;;;;;;4985460;28;5331;-59
2023/11/02 10:30:06;;;;;;;;;;;;;;;;;;5000062;28;4783;-59
2023/11/02 10:32:31;;;;;;;;;;;;;;;;;;5002657;28;3322;-59
2023/11/02 10:34:57;;;;;;;;;;;;;;;;;;5002211;28;4953;-59
2023/11/02 10:37:30;;;;;;;;;;;;;;;;;;4990506;28;5069;-59
2023/11/02 10:39:55;;;;;;;;;;;;;;;;;;4990610;28;5189;-58
2023/11/02 10:42:36;;;;;;;;;;;;;;;;;;4974539;28;5030;-58
2023/11/02 10:45:01;;;;;;;;;;;;;;;;;;4997077;28;4896;-59
2023/11/02 10:47:27;;;;;;;;;;;;;;;;;;5012506;28;1972;-58
2023/11/02 10:49:53;;;;;;;;;;;;;;;;;;4993251;28;4654;-58
2023/11/02 10:52:33;;;;;;;;;;;;;;;;;;4991111;28;5088;-58
2023/11/02 10:55:01;;;;;;;;;;;;;;;;;;5002691;28;4513;-60
2023/11/02 10:57:27;;;;;;;;;;;;;;;;;;4992604;28;4430;-58
2023/11/02 11:00:03;;;;;;;;;;;;;;;;;;4992653;28;1418;-59
2023/11/02 11:02:29;;;;;;;;;;;;;;;;;;4988814;28;5049;-58
2023/11/02 11:04:54;;;;;;;;;;;;;;;;;;4987726;28;4657;-58
2023/11/02 11:07:21;;;;;;;;;;;;;;;;;;4999776;28;5234;-58
2023/11/02 11:09:49;;;;;;;;;;;;;;;;;;5000534;28;4965;-59
2023/11/02 11:12:15;;;;;;;;;;;;;;;;;;4992184;28;5111;-59
2023/11/02 11:14:40;;;;;;;;;;;;;;;;;;4991245;28;1548;-60
2023/11/02 11:17:06;;;;;;;;;;;;;;;;;;4997888;28;4849;-60
2023/11/02 11:19:31;;;;;;;;;;;;;;;;;;5004194;28;4489;-59
2023/11/02 11:22:17;;;;;;;;;;;;;;;;;;4989552;28;5147;-59
2023/11/02 11:24:44;;;;;;;;;;;;;;;;;;5005835;28;5177;-59
2023/11/02 11:27:09;;;;;;;;;;;;;;;;;;4997780;28;5085;-58
2023/11/02 11:30:03;;;;;;;;;;;;;;;;;;5006557;28;4451;-62
2023/11/02 11:32:36;;;;;;;;;;;;;;;;;;4990131;28;5109;-63
2023/11/02 11:35:05;;;;;;;;;;;;;;;;;;5000784;28;5609;-62
2023/11/02 11:37:34;;;;;;;;;;;;;;;;;;5022830;28;5288;-64
2023/11/02 11:40:23;;;;;;;;;;;;;;;;;;4989396;28;4828;-62
2023/11/02 11:42:51;;;;;;;;;;;;;;;;;;4995405;28;4992;-60
2023/11/02 11:45:32;;;;;;;;;;;;;;;;;;4977762;28;4956;-59
2023/11/02 11:48:06;;;;;;;;;;;;;;;;;;4963745;28;4617;-61
2023/11/02 11:50:41;;;;;;;;;;;;;;;;;;4958924;28;1617;-61
2023/11/02 11:53:07;;;;;;;;;;;;;;;;;;4980901;28;5032;-61
2023/11/02 11:55:32;;;;;;;;;;;;;;;;;;4975607;28;5117;-60
2023/11/02 11:57:59;;;;;;;;;;;;;;;;;;4985470;28;5356;-60
2023/11/02 12:00:25;;;;;;;;;;;;;;;;;;4976353;28;5205;-59
2023/11/02 12:03:06;;;;;;;;;;;;;;;;;;4941093;28;1587;-60
2023/11/02 12:08:47;;;;;;;;;;;;;;;;;;5000386;28;4738;-62
2023/11/02 12:11:13;;;;;;;;;;;;;;;;;;5002332;28;5008;-61
2023/11/02 12:13:48;;;;;;;;;;;;;;;;;;4998261;28;4983;-68
2023/11/02 12:16:13;;;;;;;;;;;;;;;;;;4991800;28;5111;-66
2023/11/02 12:18:39;;;;;;;;;;;;;;;;;;5014825;28;4541;-66
2023/11/02 12:21:10;;;;;;;;;;;;;;;;;;5033893;28;4457;-68
2023/11/02 12:23:39;;;;;;;;;;;;;;;;;;5003017;28;1432;-65
2023/11/02 12:26:05;;;;;;;;;;;;;;;;;;4993529;28;5061;-61
2023/11/02 12:28:50;;;;;;;;;;;;;;;;;;4982103;28;5145;-67
2023/11/02 12:31:24;;;;;;;;;;;;;;;;;;4997592;28;5109;-66
2023/11/02 12:33:49;;;;;;;;;;;;;;;;;;5016102;28;4680;-65
2023/11/02 12:36:14;;;;;;;;;;;;;;;;;;4995272;28;5154;-63
2023/11/02 12:38:49;;;;;;;;;;;;;;;;;;4976361;28;1204;-61
2023/11/02 12:41:23;;;;;;;;;;;;;;;;;;4986744;28;5042;-63
2023/11/02 12:43:52;;;;;;;;;;;;;;;;;;4982071;28;5068;-61
2023/11/02 12:46:19;;;;;;;;;;;;;;;;;;4968474;28;5040;-62
2023/11/02 12:48:45;;;;;;;;;;;;;;;;;;4969529;28;5408;-60
2023/11/02 12:51:17;;;;;;;;;;;;;;;;;;4967815;28;5173;-60
2023/11/02 12:53:43;;;;;;;;;;;;;;;;;;4970143;28;1162;-60
2023/11/02 12:56:09;;;;;;;;;;;;;;;;;;4968385;28;5116;-63
2023/11/02 12:58:36;;;;;;;;;;;;;;;;;;4971214;28;4631;-60
2023/11/02 13:01:01;;;;;;;;;;;;;;;;;;4976745;28;4555;-61
2023/11/02 13:03:27;;;;;;;;;;;;;;;;;;4981903;28;4987;-59
2023/11/02 13:05:52;;;;;;;;;;;;;;;;;;4971343;28;1972;-60
2023/11/02 13:08:26;;;;;;;;;;;;;;;;;;4978987;28;4780;-60
2023/11/02 13:10:52;;;;;;;;;;;;;;;;;;4967196;28;4538;-60
2023/11/02 13:13:17;;;;;;;;;;;;;;;;;;4981974;28;4886;-59
2023/11/02 13:15:43;;;;;;;;;;;;;;;;;;5001182;28;4633;-59
2023/11/02 13:18:09;;;;;;;;;;;;;;;;;;4985995;28;4812;-60
2023/11/02 13:26:40;;;;;;;;;;;;;;;;;;4972550;28;4611;-63
2023/11/02 13:29:07;;;;;;;;;;;;;;;;;;4992289;28;5155;-61
2023/11/02 13:31:33;;;;;;;;;;;;;;;;;;4995242;28;5066;-60
2023/11/02 13:34:00;;;;;;;;;;;;;;;;;;4990239;28;5269;-60
2023/11/02 13:36:25;;;;;;;;;;;;;;;;;;5004943;28;5073;-60
2023/11/02 13:38:51;;;;;;;;;;;;;;;;;;4987909;28;1088;-63
2023/11/02 13:41:18;;;;;;;;;;;;;;;;;;4985672;28;4584;-60
2023/11/02 13:43:43;;;;;;;;;;;;;;;;;;4980729;28;4991;-62
2023/11/02 13:46:09;;;;;;;;;;;;;;;;;;4966312;28;4720;-61
2023/11/02 13:48:34;;;;;;;;;;;;;;;;;;4970773;28;5131;-61
2023/11/02 13:50:59;;;;;;;;;;;;;;;;;;4969597;28;5022;-61
2023/11/02 13:53:28;;;;;;;;;;;;;;;;;;4982026;28;2595;-60
2023/11/02 13:55:54;;;;;;;;;;;;;;;;;;4974775;28;4873;-61
2023/11/02 13:58:19;;;;;;;;;;;;;;;;;;4980369;28;5009;-63
2023/11/02 14:00:44;;;;;;;;;;;;;;;;;;4970843;28;4550;-64
2023/11/02 14:03:10;;;;;;;;;;;;;;;;;;4984808;28;5122;-71
2023/11/02 14:05:38;;;;;;;;;;;;;;;;;;5000557;28;1989;-62
2023/11/02 14:08:04;;;;;;;;;;;;;;;;;;4984432;28;4601;-63
2023/11/02 14:10:48;;;;;;;;;;;;;;;;;;5000074;28;5103;-62
2023/11/02 14:13:13;;;;;;;;;;;;;;;;;;4992785;28;5005;-63
2023/11/02 14:15:41;;;;;;;;;;;;;;;;;;4970043;28;4936;-64
2023/11/02 14:18:07;;;;;;;;;;;;;;;;;;4983771;28;4464;-60
2023/11/02 14:20:32;;;;;;;;;;;;;;;;;;4955768;28;2676;-60
2023/11/02 14:22:58;;;;;;;;;;;;;;;;;;4977520;28;4967;-59
2023/11/02 14:25:32;;;;;;;;;;;;;;;;;;4980592;28;5208;-59
2023/11/02 14:28:19;;;;;;;;;;;;;;;;;;4987085;28;5057;-59
2023/11/02 14:30:44;;;;;;;;;;;;;;;;;;4986829;28;4713;-59
2023/11/02 14:36:24;;;;;;;;;;;;;;;;;;5000108;28;4668;-59
2023/11/02 14:38:50;;;;;;;;;;;;;;;;;;4984234;28;1351;-58
2023/11/02 14:41:16;;;;;;;;;;;;;;;;;;4993284;28;5047;-58
2023/11/02 14:43:41;;;;;;;;;;;;;;;;;;4984034;28;5059;-58
2023/11/02 14:49:10;;;;;;;;;;;;;;;;;;5001471;28;5026;-60
2023/11/02 14:51:36;;;;;;;;;;;;;;;;;;4992889;28;5260;-60
2023/11/02 14:54:02;;;;;;;;;;;;;;;;;;4996776;28;5132;-63
2023/11/02 14:56:29;;;;;;;;;;;;;;;;;;5008827;28;1405;-60
2023/11/02 14:59:03;;;;;;;;;;;;;;;;;;5000925;28;4653;-66
2023/11/02 15:01:30;;;;;;;;;;;;;;;;;;4990707;28;4775;-61
2023/11/02 15:03:56;;;;;;;;;;;;;;;;;;4989304;28;4681;-61
2023/11/02 15:06:26;;;;;;;;;;;;;;;;;;4991197;28;5166;-61
2023/11/02 15:08:51;;;;;;;;;;;;;;;;;;4970844;28;1283;-58
2023/11/02 15:11:23;;;;;;;;;;;;;;;;;;4990728;28;4598;-57
2023/11/02 15:14:03;;;;;;;;;;;;;;;;;;5000914;28;5033;-58
2023/11/02 15:16:29;;;;;;;;;;;;;;;;;;4991268;28;5127;-64
2023/11/02 15:18:54;;;;;;;;;;;;;;;;;;4995117;28;4503;-61
2023/11/02 15:21:20;;;;;;;;;;;;;;;;;;5005677;28;4558;-61
2023/11/02 15:23:45;;;;;;;;;;;;;;;;;;5000376;28;1494;-61
2023/11/02 15:26:10;;;;;;;;;;;;;;;;;;4988792;28;4899;-59
2023/11/02 15:28:36;;;;;;;;;;;;;;;;;;4995984;28;5188;-60
2023/11/02 15:37:06;;;;;;;;;;;;;;;;;;5017572;28;4605;-60
2023/11/02 15:39:32;;;;;;;;;;;;;;;;;;4994947;28;4866;-60
2023/11/02 15:41:57;;;;;;;;;;;;;;;;;;4995927;28;4550;-60
2023/11/02 15:44:23;;;;;;;;;;;;;;;;;;5007779;28;2705;-61
2023/11/02 15:47:22;;;;;;;;;;;;;;;;;;4992682;28;4991;-59
2023/11/02 15:49:52;;;;;;;;;;;;;;;;;;4987798;28;5082;-61
2023/11/02 15:52:19;;;;;;;;;;;;;;;;;;4997769;28;5062;-60
2023/11/02 15:54:45;;;;;;;;;;;;;;;;;;4992849;28;5200;-60
2023/11/02 15:57:16;;;;;;;;;;;;;;;;;;5004353;28;5036;-61
2023/11/02 15:59:41;;;;;;;;;;;;;;;;;;4993596;28;3087;-61
2023/11/02 16:02:09;;;;;;;;;;;;;;;;;;5007805;28;5084;-60
2023/11/02 16:04:35;;;;;;;;;;;;;;;;;;5015952;28;5048;-60
2023/11/02 16:07:01;;;;;;;;;;;;;;;;;;5015788;28;5054;-61
2023/11/02 16:09:26;;;;;;;;;;;;;;;;;;4991568;28;4631;-65
2023/11/02 16:11:52;;;;;;;;;;;;;;;;;;5002332;28;1975;-64
2023/11/02 16:14:17;;;;;;;;;;;;;;;;;;5014968;28;4814;-66
2023/11/02 16:16:43;;;;;;;;;;;;;;;;;;5010192;28;4500;-67
2023/11/02 16:19:09;;;;;;;;;;;;;;;;;;5000258;28;4927;-65
2023/11/02 16:21:35;;;;;;;;;;;;;;;;;;4975977;28;5083;-70
2023/11/02 16:27:25;;;;;;;;;;;;;;;;;;4995485;28;5189;-64
2023/11/02 16:29:50;;;;;;;;;;;;;;;;;;4997125;28;1294;-63
2023/11/02 16:32:16;;;;;;;;;;;;;;;;;;5015556;28;4598;-64
2023/11/02 16:37:57;;;;;;;;;;;;;;;;;;4993241;28;5249;-70
2023/11/02 16:40:32;;;;;;;;;;;;;;;;;;5011689;28;5029;-72
2023/11/02 16:42:58;;;;;;;;;;;;;;;;;;5002360;28;5030;-63
2023/11/02 16:45:25;;;;;;;;;;;;;;;;;;5001857;28;5183;-62
2023/11/02 16:47:57;;;;;;;;;;;;;;;;;;5003647;28;1914;-62
2023/11/02 16:50:22;;;;;;;;;;;;;;;;;;4976543;28;5364;-62
2023/11/02 16:52:47;;;;;;;;;;;;;;;;;;5017523;28;5049;-66
2023/11/02 16:55:12;;;;;;;;;;;;;;;;;;5012349;28;4711;-67
2023/11/02 16:57:38;;;;;;;;;;;;;;;;;;4972658;28;5143;-65
2023/11/02 17:00:03;;;;;;;;;;;;;;;;;;4956367;28;4927;-65
2023/11/02 17:02:29;;;;;;;;;;;;;;;;;;4985549;28;1234;-64
2023/11/02 17:04:56;;;;;;;;;;;;;;;;;;5008419;28;5002;-66
2023/11/02 17:07:21;;;;;;;;;;;;;;;;;;5000120;28;4498;-67
2023/11/02 17:09:47;;;;;;;;;;;;;;;;;;4996362;28;5126;-70
2023/11/02 17:12:12;;;;;;;;;;;;;;;;;;4999524;28;4932;-66
2023/11/02 17:14:37;;;;;;;;;;;;;;;;;;5000285;28;1105;-61
2023/11/02 17:17:09;;;;;;;;;;;;;;;;;;4994437;28;5027;-61
2023/11/02 17:32:12;;;;;;;;;;;;;;;;;;5004421;28;5178;-61
2023/11/02 17:37:41;;;;;;;;;;;;;;;;;;4993826;28;5030;-60
2023/11/02 17:40:08;;;;;;;;;;;;;;;;;;4988515;28;4475;-60
2023/11/02 17:42:34;;;;;;;;;;;;;;;;;;5007921;28;5087;-61
2023/11/02 17:48:09;;;;;;;;;;;;;;;;;;4992057;28;5173;-60
2023/11/02 17:50:37;;;;;;;;;;;;;;;;;;4995954;28;1082;-60
2023/11/02 17:53:02;;;;;;;;;;;;;;;;;;4991195;28;4843;-61
2023/11/02 17:55:28;;;;;;;;;;;;;;;;;;4994111;28;5094;-61
2023/11/02 18:00:52;;;;;;;;;;;;;;;;;;5000777;28;4760;-61
2023/11/02 18:03:18;;;;;;;;;;;;;;;;;;4999568;28;4927;-61
2023/11/02 18:05:43;;;;;;;;;;;;;;;;;;4997322;28;3042;-61
2023/11/02 18:08:08;;;;;;;;;;;;;;;;;;5014534;28;5047;-61
2023/11/02 18:10:40;;;;;;;;;;;;;;;;;;5004273;28;5052;-61
2023/11/02 18:16:12;;;;;;;;;;;;;;;;;;4995067;28;4566;-62
2023/11/02 18:18:39;;;;;;;;;;;;;;;;;;4981452;28;5068;-67
2023/11/02 18:21:04;;;;;;;;;;;;;;;;;;4992227;28;5120;-69
2023/11/02 18:23:29;;;;;;;;;;;;;;;;;;4995806;28;1072;-67
2023/11/02 18:25:55;;;;;;;;;;;;;;;;;;4992446;28;5095;-67
2023/11/02 18:28:21;;;;;;;;;;;;;;;;;;4986088;28;5140;-70
2023/11/02 18:30:47;;;;;;;;;;;;;;;;;;4970018;28;4907;-65
2023/11/02 18:33:12;;;;;;;;;;;;;;;;;;4990293;28;5179;-70
2023/11/02 18:35:37;;;;;;;;;;;;;;;;;;4994999;28;1276;-70
2023/11/02 18:38:03;;;;;;;;;;;;;;;;;;5000778;28;4961;-70
2023/11/02 18:40:28;;;;;;;;;;;;;;;;;;4991608;28;4585;-69
2023/11/02 18:42:53;;;;;;;;;;;;;;;;;;4990945;28;5122;-69
2023/11/02 18:45:19;;;;;;;;;;;;;;;;;;5001573;28;4796;-68
2023/11/02 18:47:44;;;;;;;;;;;;;;;;;;5009187;28;1906;-66
2023/11/02 18:53:00;;;;;;;;;;;;;;;;;;4992631;28;4698;-66
2023/11/02 18:55:28;;;;;;;;;;;;;;;;;;4995445;28;4474;-71
2023/11/02 19:00:59;;;;;;;;;;;;;;;;;;4994921;28;5255;-63
2023/11/02 19:03:26;;;;;;;;;;;;;;;;;;4998304;28;5028;-62
2023/11/02 19:05:54;;;;;;;;;;;;;;;;;;4997263;28;1914;-65
2023/11/02 19:08:24;;;;;;;;;;;;;;;;;;4995186;28;4801;-62
2023/11/02 19:10:49;;;;;;;;;;;;;;;;;;4993396;28;5088;-63
2023/11/02 19:13:14;;;;;;;;;;;;;;;;;;4996340;28;5099;-63
2023/11/02 19:15:41;;;;;;;;;;;;;;;;;;5034396;28;4891;-63
2023/11/02 19:21:09;;;;;;;;;;;;;;;;;;4998276;28;5240;-66
2023/11/02 19:23:34;;;;;;;;;;;;;;;;;;4995348;28;1093;-69
2023/11/02 19:26:00;;;;;;;;;;;;;;;;;;4994955;28;5083;-63
2023/11/02 19:28:25;;;;;;;;;;;;;;;;;;5002609;28;4621;-69
2023/11/02 19:31:09;;;;;;;;;;;;;;;;;;4999082;28;4685;-64
2023/11/02 19:33:34;;;;;;;;;;;;;;;;;;4997136;28;5372;-63
2023/11/02 19:36:01;;;;;;;;;;;;;;;;;;4997756;28;4650;-65
2023/11/02 19:38:29;;;;;;;;;;;;;;;;;;4996496;28;969;-64
2023/11/02 19:41:01;;;;;;;;;;;;;;;;;;4996939;28;4824;-66
2023/11/02 19:43:28;;;;;;;;;;;;;;;;;;4997444;28;4574;-65
2023/11/02 19:45:54;;;;;;;;;;;;;;;;;;4975081;28;5253;-63
2023/11/02 19:48:19;;;;;;;;;;;;;;;;;;4976615;28;5122;-68
2023/11/02 19:50:47;;;;;;;;;;;;;;;;;;4978809;28;1407;-71
2023/11/02 19:53:16;;;;;;;;;;;;;;;;;;4977832;28;4438;-68
2023/11/02 19:55:41;;;;;;;;;;;;;;;;;;4977928;28;4635;-68